Point Vicente — WDB9763 — position and weather

sailwx.info

Track history (hours):
 
Tides and Currents Weather Stations Pressure Air Temp Water Temp Dewpoint Dewpoint Depression Visibility Wind Speed Wind Dir Waves Ship Positions

Point Vicente

Owner: Foss Maritime Company, Seattle, WA. More information available from US FCC via Universal Licensing System and Coast Guard Vessel Documentation Center.

Last reported at 2015-May-23 03:33 UTC. Time now 2015-May-23 04:13 UTC.
Position N 37°54' W 122°22'.

Length 32 m; draft 4.3 m.

Type: Tug. MMSI: 366982330.

Date/timePositionNaut miles runAvg speedWind from/ knotsBaromVisibWave heightAir tempDewpointWater temp
2015-May-23 03:33N 37°54' W 122°22'0 0.0
2015-May-23 02:33N 37°54' W 122°22'0 0.0
2015-May-23 01:33N 37°54' W 122°22'0 0.0
2015-May-23 00:33N 37°54' W 122°22'0 0.0
2015-May-22 23:33N 37°54' W 122°22'0 0.0
2015-May-22 22:33N 37°54' W 122°22'0 0.0
2015-May-22 21:27N 37°54' W 122°22'0 0.0
2015-May-22 20:33N 37°54' W 122°22'0 0.0
2015-May-22 19:33N 37°54' W 122°22'0 0.0
2015-May-22 18:33N 37°54' W 122°22'0 0.0
2015-May-22 17:33N 37°54' W 122°22'0 0.0
2015-May-22 16:33N 37°54' W 122°22'0 0.0
2015-May-22 15:33N 37°54' W 122°22'0 0.0
2015-May-22 14:33N 37°54' W 122°22'0 0.0
2015-May-22 13:33N 37°54' W 122°22'0 0.0
2015-May-22 12:33N 37°54' W 122°22'0 0.0
2015-May-22 11:33N 37°54' W 122°22'0 0.0
2015-May-22 10:33N 37°54' W 122°22'0 0.0
2015-May-22 09:33N 37°54' W 122°22'0 0.0
2015-May-22 08:33N 37°54' W 122°22'0 0.0
2015-May-22 07:27N 37°54' W 122°22'0 0.0
2015-May-22 06:33N 37°54' W 122°22'0 0.0
2015-May-22 05:33N 37°54' W 122°22'0 0.0
2015-May-22 04:33N 37°54' W 122°22'0 0.1
2015-May-22 03:34N 37°54' W 122°22'1 0.9
2015-May-22 02:33N 37°55' W 122°22'6 6.2
2015-May-22 01:33N 37°49' W 122°24'1 0.8
2015-May-22 00:33N 37°48' W 122°24'1 1.4
2015-May-21 23:34N 37°50' W 122°24'5 4.3
2015-May-21 22:28N 37°54' W 122°22'0 0.0
2015-May-21 21:28N 37°54' W 122°22'0 0.0
2015-May-21 20:31N 37°54' W 122°22'0 0.0
2015-May-21 19:31N 37°54' W 122°22'0 0.0
2015-May-21 18:28N 37°54' W 122°22'0 0.0
2015-May-21 17:28N 37°54' W 122°22'0 0.0
2015-May-21 16:28N 37°54' W 122°22'0 0.0
2015-May-21 15:28N 37°54' W 122°22'0 0.0
2015-May-21 14:31N 37°54' W 122°22'0 0.0
2015-May-21 13:31N 37°54' W 122°22'0 0.0
2015-May-21 12:28N 37°54' W 122°22'0 0.0
2015-May-21 11:31N 37°54' W 122°22'0 0.0
2015-May-21 10:28N 37°54' W 122°22'0 0.0
2015-May-21 09:28N 37°54' W 122°22'0 0.0
2015-May-21 08:31N 37°54' W 122°22'0 0.0
2015-May-21 07:28N 37°54' W 122°22'0 0.0
2015-May-21 06:31N 37°54' W 122°22'0 0.0
2015-May-21 05:28N 37°54' W 122°22'0 0.0
2015-May-21 04:28N 37°54' W 122°22'1 1.0
2015-May-21 03:33N 37°55' W 122°22'2 2.1
2015-May-21 02:33N 37°54' W 122°25'0 0.3
2015-May-21 01:33N 37°55' W 122°24'2 1.5
2015-May-21 00:31N 37°54' W 122°22'0 0.0
2015-May-20 23:31N 37°54' W 122°22'0 0.0
2015-May-20 22:31N 37°54' W 122°22'0 0.0
2015-May-20 21:31N 37°54' W 122°22'0 0.0
2015-May-20 20:31N 37°54' W 122°22'0 0.0
2015-May-20 19:25N 37°54' W 122°22'1 0.7
2015-May-20 18:33N 37°55' W 122°22'1 0.7
2015-May-20 17:33N 37°54' W 122°22'0 0.1
2015-May-20 16:34N 37°54' W 122°22'0 0.0
2015-May-20 15:33N 37°54' W 122°22'0 0.0
2015-May-20 14:33N 37°54' W 122°22'0 0.0
2015-May-20 13:33N 37°54' W 122°22'0 0.0
2015-May-20 12:34N 37°54' W 122°22'0 0.0
2015-May-20 11:33N 37°54' W 122°22'0 0.0
2015-May-20 10:33N 37°54' W 122°22'0 0.0
2015-May-20 09:33N 37°54' W 122°22'0 0.0
2015-May-20 08:33N 37°54' W 122°22'0 0.0
2015-May-20 07:33N 37°54' W 122°22'0 0.0
2015-May-20 06:33N 37°54' W 122°22'0 0.0
2015-May-20 05:33N 37°54' W 122°22'0 0.0
2015-May-20 04:33N 37°54' W 122°22'0 0.0
2015-May-20 03:34N 37°54' W 122°22'0 0.0
2015-May-20 02:32N 37°54' W 122°22'0 0.0
2015-May-20 01:33N 37°54' W 122°22'0 0.0
2015-May-20 00:34N 37°54' W 122°22'0 0.0
2015-May-19 23:33N 37°54' W 122°22'0 0.0
2015-May-19 22:34N 37°54' W 122°22'0 0.0
2015-May-19 21:34N 37°54' W 122°22'0 0.0
2015-May-19 20:33N 37°54' W 122°22'0 0.1
2015-May-19 19:33N 37°54' W 122°22'0 0.1
2015-May-19 18:32N 37°54' W 122°22'0 0.0
2015-May-19 17:26N 37°54' W 122°22'0 0.0
2015-May-19 16:32N 37°54' W 122°22'0 0.0
2015-May-19 15:29N 37°54' W 122°22'0 0.0
2015-May-19 14:23N 37°54' W 122°22'0 0.0
2015-May-19 13:32N 37°54' W 122°22'0 0.0
2015-May-19 12:26N 37°54' W 122°22'0 0.0
2015-May-19 11:32N 37°54' W 122°22'0 0.0
2015-May-19 10:17N 37°54' W 122°22'0 0.0
2015-May-19 09:32N 37°54' W 122°22'0 0.0
2015-May-19 08:32N 37°54' W 122°22'0 0.0
2015-May-19 07:32N 37°54' W 122°22'0 0.0
2015-May-19 06:32N 37°54' W 122°22'0 0.0
2015-May-19 05:32N 37°54' W 122°22'0 0.0
2015-May-19 04:32N 37°54' W 122°22'0 0.0
2015-May-19 03:29N 37°54' W 122°22'0 0.0
2015-May-19 02:29N 37°54' W 122°22'0 0.0
2015-May-19 01:32N 37°54' W 122°22'0 0.0
2015-May-19 00:32N 37°54' W 122°22'0 0.0
2015-May-18 23:32N 37°54' W 122°22'0 0.0
2015-May-18 22:32N 37°54' W 122°22'0 0.0
2015-May-18 21:32N 37°54' W 122°22'0 0.0
2015-May-18 20:32N 37°54' W 122°22'0 0.0
2015-May-18 19:17N 37°54' W 122°22'0 0.1
2015-May-18 18:29N 37°54' W 122°22'0 0.0
2015-May-18 17:32N 37°54' W 122°22'0 0.1
2015-May-18 16:29N 37°54' W 122°22'0 0.0
2015-May-18 15:29N 37°54' W 122°22'0 0.0
2015-May-18 14:29N 37°54' W 122°22'0 0.0
2015-May-18 13:29N 37°54' W 122°22'0 0.0
2015-May-18 12:23N 37°54' W 122°22'0 0.0
2015-May-18 11:29N 37°54' W 122°22'0 0.0
2015-May-18 10:29N 37°54' W 122°22'0 0.0
2015-May-18 09:29N 37°54' W 122°22'0 0.0
2015-May-18 08:32N 37°54' W 122°22'0 0.0
2015-May-18 07:29N 37°54' W 122°22'0 0.0
2015-May-18 06:32N 37°54' W 122°22'0 0.0
2015-May-18 05:20N 37°54' W 122°22'0 0.0
2015-May-18 04:29N 37°54' W 122°22'0 0.0
2015-May-18 03:29N 37°54' W 122°22'0 0.0
2015-May-18 02:29N 37°54' W 122°22'0 0.0
2015-May-18 01:26N 37°54' W 122°22'0 0.0
2015-May-18 00:29N 37°54' W 122°22'0 0.0
2015-May-17 23:29N 37°54' W 122°22'0 0.0
2015-May-17 22:29N 37°54' W 122°22'0 0.0
2015-May-17 21:29N 37°54' W 122°22'0 0.0
2015-May-17 20:29N 37°54' W 122°22'0 0.0
2015-May-17 19:32N 37°54' W 122°22'0 0.0
2015-May-17 18:32N 37°54' W 122°22'0 0.0
2015-May-17 17:29N 37°54' W 122°22'1 1.0
2015-May-17 16:33N 37°54' W 122°23'8 7.7
2015-May-17 15:32N 37°49' W 122°31'3 3.2
2015-May-17 14:33N 37°50' W 122°27'5 4.9
2015-May-17 13:33N 37°55' W 122°26'1 1.1
2015-May-17 12:33N 37°55' W 122°24'1 1.5
2015-May-17 11:32N 37°54' W 122°22'0 0.0
2015-May-17 10:32N 37°54' W 122°22'0 0.0
2015-May-17 09:32N 37°54' W 122°22'0 0.0
2015-May-17 08:20N 37°54' W 122°22'0 0.0
2015-May-17 07:32N 37°54' W 122°22'0 0.0
2015-May-17 06:33N 37°54' W 122°22'1 0.8
2015-May-17 05:34N 37°55' W 122°22'0 0.4
2015-May-17 04:33N 37°55' W 122°22'1 1.0
2015-May-17 03:33N 37°54' W 122°22'0 0.0
2015-May-17 02:30N 37°54' W 122°22'0 0.0
2015-May-17 01:33N 37°54' W 122°22'0 0.0
2015-May-17 00:33N 37°54' W 122°22'0 0.0
2015-May-16 23:30N 37°54' W 122°22'0 0.0
2015-May-16 22:33N 37°54' W 122°22'2 2.2
2015-May-16 21:33N 37°55' W 122°25'6 5.7
2015-May-16 20:33N 37°50' W 122°22'2 2.1
2015-May-16 19:31N 37°49' W 122°20'0 0.0
2015-May-16 18:31N 37°49' W 122°20'0 0.0
2015-May-16 17:31N 37°49' W 122°20'0 0.0
2015-May-16 16:31N 37°49' W 122°20'0 0.0
2015-May-16 15:33N 37°49' W 122°20'5 5.5
2015-May-16 14:33N 37°53' W 122°24'2 2.2
2015-May-16 13:30N 37°54' W 122°22'0 0.0
2015-May-16 12:29N 37°54' W 122°22'0 0.0
2015-May-16 11:29N 37°54' W 122°22'0 0.0
2015-May-16 10:29N 37°54' W 122°22'0 0.0
2015-May-16 09:29N 37°54' W 122°22'0 0.0
2015-May-16 08:26N 37°54' W 122°22'0 0.0
2015-May-16 07:29N 37°54' W 122°22'0 0.0
2015-May-16 06:32N 37°54' W 122°22'0 0.0
2015-May-16 05:29N 37°54' W 122°22'0 0.0
2015-May-16 04:29N 37°54' W 122°22'0 0.0
2015-May-16 03:29N 37°54' W 122°22'0 0.0
2015-May-16 02:29N 37°54' W 122°22'0 0.0
2015-May-16 01:23N 37°54' W 122°22'0 0.0
2015-May-16 00:29N 37°54' W 122°22'0 0.0
2015-May-15 23:29N 37°54' W 122°22'0 0.1
2015-May-15 22:33N 37°54' W 122°22'1 0.6
2015-May-15 21:33N 37°55' W 122°22'0 0.1
2015-May-15 20:33N 37°54' W 122°22'0 0.0
2015-May-15 19:28N 37°54' W 122°22'0 0.0
2015-May-15 18:31N 37°54' W 122°22'0 0.0
2015-May-15 17:10N 37°54' W 122°22'0 0.0
2015-May-15 16:31N 37°54' W 122°22'0 0.0
2015-May-15 15:10N 37°54' W 122°22'0 0.0
2015-May-15 14:31N 37°54' W 122°22'0 0.0
2015-May-15 12:33N 37°54' W 122°22'0 0.5
2015-May-15 11:33N 37°54' W 122°22'0 0.1
2015-May-15 10:28N 37°54' W 122°22'0 0.0
2015-May-15 09:31N 37°54' W 122°22'0 0.0
2015-May-15 08:28N 37°54' W 122°22'0 0.0
2015-May-15 07:28N 37°54' W 122°22'0 0.0
2015-May-15 06:25N 37°54' W 122°22'0 0.0
2015-May-15 05:28N 37°54' W 122°22'0 0.0
2015-May-15 04:31N 37°54' W 122°22'0 0.0
2015-May-15 03:28N 37°54' W 122°22'0 0.0
2015-May-15 02:31N 37°54' W 122°22'0 0.0
2015-May-15 01:28N 37°54' W 122°22'0 0.0
2015-May-15 00:28N 37°54' W 122°22'0 0.0
2015-May-14 23:31N 37°54' W 122°22'0 0.0
2015-May-14 22:28N 37°54' W 122°22'0 0.0
2015-May-14 21:31N 37°54' W 122°22'0 0.0
2015-May-14 20:31N 37°54' W 122°22'0 0.0
2015-May-14 19:28N 37°54' W 122°22'0 0.0
2015-May-14 18:31N 37°54' W 122°22'0 0.0
2015-May-14 17:31N 37°54' W 122°22'0 0.0
2015-May-14 16:31N 37°54' W 122°22'0 0.0
2015-May-14 15:31N 37°54' W 122°22'0 0.0
2015-May-14 14:31N 37°54' W 122°22'0 0.0
2015-May-14 13:28N 37°54' W 122°22'0 0.0
2015-May-14 12:28N 37°54' W 122°22'0 0.0
2015-May-14 11:28N 37°54' W 122°22'0 0.0
2015-May-14 10:31N 37°54' W 122°22'0 0.0
2015-May-14 09:31N 37°54' W 122°22'0 0.0
2015-May-14 08:22N 37°54' W 122°22'0 0.0
2015-May-14 07:28N 37°54' W 122°22'0 0.0
2015-May-14 06:25N 37°54' W 122°22'0 0.0
2015-May-14 05:28N 37°54' W 122°22'0 0.0
2015-May-14 04:31N 37°54' W 122°22'0 0.0
2015-May-14 03:16N 37°54' W 122°22'0 0.0
2015-May-14 02:31N 37°54' W 122°22'0 0.0
2015-May-14 01:31N 37°54' W 122°22'0 0.0
2015-May-14 00:25N 37°54' W 122°22'0 0.0
2015-May-13 23:28N 37°54' W 122°22'0 0.0
2015-May-13 22:25N 37°54' W 122°22'0 0.0
2015-May-13 21:31N 37°54' W 122°22'0 0.0
2015-May-13 20:28N 37°54' W 122°22'0 0.0
2015-May-13 19:28N 37°54' W 122°22'0 0.0
2015-May-13 18:31N 37°54' W 122°22'0 0.0
2015-May-13 17:16N 37°54' W 122°22'0 0.0
2015-May-13 16:28N 37°54' W 122°22'0 0.0
2015-May-13 15:25N 37°54' W 122°22'0 0.0
2015-May-13 14:28N 37°54' W 122°22'0 0.0
2015-May-13 13:28N 37°54' W 122°22'0 0.0
2015-May-13 12:28N 37°54' W 122°22'0 0.0
2015-May-13 11:22N 37°54' W 122°22'0 0.0
2015-May-13 10:25N 37°54' W 122°22'0 0.0
2015-May-13 09:28N 37°54' W 122°22'0 0.0
2015-May-13 08:28N 37°54' W 122°22'0 0.0
2015-May-13 07:28N 37°54' W 122°22'0 0.0
2015-May-13 06:28N 37°54' W 122°22'0 0.0
2015-May-13 05:28N 37°54' W 122°22'0 0.0
2015-May-13 04:25N 37°54' W 122°22'  
Track history (hours):
 
Tides and Currents Weather Stations Pressure Air Temp Water Temp Dewpoint Dewpoint Depression Visibility Wind Speed Wind Dir Waves Ship Positions

Point Vicente

Owner: Foss Maritime Company, Seattle, WA. More information available from US FCC via Universal Licensing System and Coast Guard Vessel Documentation Center.

Last reported at 2015-May-23 03:33 UTC. Time now 2015-May-23 04:13 UTC.
Position N 37°54' W 122°22'.

Length 32 m; draft 4.3 m.

Type: Tug. MMSI: 366982330.

Date/timePositionNaut miles runAvg speedWind from/ knotsBaromVisibWave heightAir tempDewpointWater temp
2015-May-23 03:33N 37°54' W 122°22'0 0.0
2015-May-23 02:33N 37°54' W 122°22'0 0.0
2015-May-23 01:33N 37°54' W 122°22'0 0.0
2015-May-23 00:33N 37°54' W 122°22'0 0.0
2015-May-22 23:33N 37°54' W 122°22'0 0.0
2015-May-22 22:33N 37°54' W 122°22'0 0.0
2015-May-22 21:27N 37°54' W 122°22'0 0.0
2015-May-22 20:33N 37°54' W 122°22'0 0.0
2015-May-22 19:33N 37°54' W 122°22'0 0.0
2015-May-22 18:33N 37°54' W 122°22'0 0.0
2015-May-22 17:33N 37°54' W 122°22'0 0.0
2015-May-22 16:33N 37°54' W 122°22'0 0.0
2015-May-22 15:33N 37°54' W 122°22'0 0.0
2015-May-22 14:33N 37°54' W 122°22'0 0.0
2015-May-22 13:33N 37°54' W 122°22'0 0.0
2015-May-22 12:33N 37°54' W 122°22'0 0.0
2015-May-22 11:33N 37°54' W 122°22'0 0.0
2015-May-22 10:33N 37°54' W 122°22'0 0.0
2015-May-22 09:33N 37°54' W 122°22'0 0.0
2015-May-22 08:33N 37°54' W 122°22'0 0.0
2015-May-22 07:27N 37°54' W 122°22'0 0.0
2015-May-22 06:33N 37°54' W 122°22'0 0.0
2015-May-22 05:33N 37°54' W 122°22'0 0.0
2015-May-22 04:33N 37°54' W 122°22'0 0.1
2015-May-22 03:34N 37°54' W 122°22'1 0.9
2015-May-22 02:33N 37°55' W 122°22'6 6.2
2015-May-22 01:33N 37°49' W 122°24'1 0.8
2015-May-22 00:33N 37°48' W 122°24'1 1.4
2015-May-21 23:34N 37°50' W 122°24'5 4.3
2015-May-21 22:28N 37°54' W 122°22'0 0.0
2015-May-21 21:28N 37°54' W 122°22'0 0.0
2015-May-21 20:31N 37°54' W 122°22'0 0.0
2015-May-21 19:31N 37°54' W 122°22'0 0.0
2015-May-21 18:28N 37°54' W 122°22'0 0.0
2015-May-21 17:28N 37°54' W 122°22'0 0.0
2015-May-21 16:28N 37°54' W 122°22'0 0.0
2015-May-21 15:28N 37°54' W 122°22'0 0.0
2015-May-21 14:31N 37°54' W 122°22'0 0.0
2015-May-21 13:31N 37°54' W 122°22'0 0.0
2015-May-21 12:28N 37°54' W 122°22'0 0.0
2015-May-21 11:31N 37°54' W 122°22'0 0.0
2015-May-21 10:28N 37°54' W 122°22'0 0.0
2015-May-21 09:28N 37°54' W 122°22'0 0.0
2015-May-21 08:31N 37°54' W 122°22'0 0.0
2015-May-21 07:28N 37°54' W 122°22'0 0.0
2015-May-21 06:31N 37°54' W 122°22'0 0.0
2015-May-21 05:28N 37°54' W 122°22'0 0.0
2015-May-21 04:28N 37°54' W 122°22'1 1.0
2015-May-21 03:33N 37°55' W 122°22'2 2.1
2015-May-21 02:33N 37°54' W 122°25'0 0.3
2015-May-21 01:33N 37°55' W 122°24'2 1.5
2015-May-21 00:31N 37°54' W 122°22'0 0.0
2015-May-20 23:31N 37°54' W 122°22'0 0.0
2015-May-20 22:31N 37°54' W 122°22'0 0.0
2015-May-20 21:31N 37°54' W 122°22'0 0.0
2015-May-20 20:31N 37°54' W 122°22'0 0.0
2015-May-20 19:25N 37°54' W 122°22'1 0.7
2015-May-20 18:33N 37°55' W 122°22'1 0.7
2015-May-20 17:33N 37°54' W 122°22'0 0.1
2015-May-20 16:34N 37°54' W 122°22'0 0.0
2015-May-20 15:33N 37°54' W 122°22'0 0.0
2015-May-20 14:33N 37°54' W 122°22'0 0.0
2015-May-20 13:33N 37°54' W 122°22'0 0.0
2015-May-20 12:34N 37°54' W 122°22'0 0.0
2015-May-20 11:33N 37°54' W 122°22'0 0.0
2015-May-20 10:33N 37°54' W 122°22'0 0.0
2015-May-20 09:33N 37°54' W 122°22'0 0.0
2015-May-20 08:33N 37°54' W 122°22'0 0.0
2015-May-20 07:33N 37°54' W 122°22'0 0.0
2015-May-20 06:33N 37°54' W 122°22'0 0.0
2015-May-20 05:33N 37°54' W 122°22'0 0.0
2015-May-20 04:33N 37°54' W 122°22'0 0.0
2015-May-20 03:34N 37°54' W 122°22'0 0.0
2015-May-20 02:32N 37°54' W 122°22'0 0.0
2015-May-20 01:33N 37°54' W 122°22'0 0.0
2015-May-20 00:34N 37°54' W 122°22'0 0.0
2015-May-19 23:33N 37°54' W 122°22'0 0.0
2015-May-19 22:34N 37°54' W 122°22'0 0.0
2015-May-19 21:34N 37°54' W 122°22'0 0.0
2015-May-19 20:33N 37°54' W 122°22'0 0.1
2015-May-19 19:33N 37°54' W 122°22'0 0.1
2015-May-19 18:32N 37°54' W 122°22'0 0.0
2015-May-19 17:26N 37°54' W 122°22'0 0.0
2015-May-19 16:32N 37°54' W 122°22'0 0.0
2015-May-19 15:29N 37°54' W 122°22'0 0.0
2015-May-19 14:23N 37°54' W 122°22'0 0.0
2015-May-19 13:32N 37°54' W 122°22'0 0.0
2015-May-19 12:26N 37°54' W 122°22'0 0.0
2015-May-19 11:32N 37°54' W 122°22'0 0.0
2015-May-19 10:17N 37°54' W 122°22'0 0.0
2015-May-19 09:32N 37°54' W 122°22'0 0.0
2015-May-19 08:32N 37°54' W 122°22'0 0.0
2015-May-19 07:32N 37°54' W 122°22'0 0.0
2015-May-19 06:32N 37°54' W 122°22'0 0.0
2015-May-19 05:32N 37°54' W 122°22'0 0.0
2015-May-19 04:32N 37°54' W 122°22'0 0.0
2015-May-19 03:29N 37°54' W 122°22'0 0.0
2015-May-19 02:29N 37°54' W 122°22'0 0.0
2015-May-19 01:32N 37°54' W 122°22'0 0.0
2015-May-19 00:32N 37°54' W 122°22'0 0.0
2015-May-18 23:32N 37°54' W 122°22'0 0.0
2015-May-18 22:32N 37°54' W 122°22'0 0.0
2015-May-18 21:32N 37°54' W 122°22'0 0.0
2015-May-18 20:32N 37°54' W 122°22'0 0.0
2015-May-18 19:17N 37°54' W 122°22'0 0.1
2015-May-18 18:29N 37°54' W 122°22'0 0.0
2015-May-18 17:32N 37°54' W 122°22'0 0.1
2015-May-18 16:29N 37°54' W 122°22'0 0.0
2015-May-18 15:29N 37°54' W 122°22'0 0.0
2015-May-18 14:29N 37°54' W 122°22'0 0.0
2015-May-18 13:29N 37°54' W 122°22'0 0.0
2015-May-18 12:23N 37°54' W 122°22'0 0.0
2015-May-18 11:29N 37°54' W 122°22'0 0.0
2015-May-18 10:29N 37°54' W 122°22'0 0.0
2015-May-18 09:29N 37°54' W 122°22'0 0.0
2015-May-18 08:32N 37°54' W 122°22'0 0.0
2015-May-18 07:29N 37°54' W 122°22'0 0.0
2015-May-18 06:32N 37°54' W 122°22'0 0.0
2015-May-18 05:20N 37°54' W 122°22'0 0.0
2015-May-18 04:29N 37°54' W 122°22'0 0.0
2015-May-18 03:29N 37°54' W 122°22'0 0.0
2015-May-18 02:29N 37°54' W 122°22'0 0.0
2015-May-18 01:26N 37°54' W 122°22'0 0.0
2015-May-18 00:29N 37°54' W 122°22'0 0.0
2015-May-17 23:29N 37°54' W 122°22'0 0.0
2015-May-17 22:29N 37°54' W 122°22'0 0.0
2015-May-17 21:29N 37°54' W 122°22'0 0.0
2015-May-17 20:29N 37°54' W 122°22'0 0.0
2015-May-17 19:32N 37°54' W 122°22'0 0.0
2015-May-17 18:32N 37°54' W 122°22'0 0.0
2015-May-17 17:29N 37°54' W 122°22'1 1.0
2015-May-17 16:33N 37°54' W 122°23'8 7.7
2015-May-17 15:32N 37°49' W 122°31'3 3.2
2015-May-17 14:33N 37°50' W 122°27'5 4.9
2015-May-17 13:33N 37°55' W 122°26'1 1.1
2015-May-17 12:33N 37°55' W 122°24'1 1.5
2015-May-17 11:32N 37°54' W 122°22'0 0.0
2015-May-17 10:32N 37°54' W 122°22'0 0.0
2015-May-17 09:32N 37°54' W 122°22'0 0.0
2015-May-17 08:20N 37°54' W 122°22'0 0.0
2015-May-17 07:32N 37°54' W 122°22'0 0.0
2015-May-17 06:33N 37°54' W 122°22'1 0.8
2015-May-17 05:34N 37°55' W 122°22'0 0.4
2015-May-17 04:33N 37°55' W 122°22'1 1.0
2015-May-17 03:33N 37°54' W 122°22'0 0.0
2015-May-17 02:30N 37°54' W 122°22'0 0.0
2015-May-17 01:33N 37°54' W 122°22'0 0.0
2015-May-17 00:33N 37°54' W 122°22'0 0.0
2015-May-16 23:30N 37°54' W 122°22'0 0.0
2015-May-16 22:33N 37°54' W 122°22'2 2.2
2015-May-16 21:33N 37°55' W 122°25'6 5.7
2015-May-16 20:33N 37°50' W 122°22'2 2.1
2015-May-16 19:31N 37°49' W 122°20'0 0.0
2015-May-16 18:31N 37°49' W 122°20'0 0.0
2015-May-16 17:31N 37°49' W 122°20'0 0.0
2015-May-16 16:31N 37°49' W 122°20'0 0.0
2015-May-16 15:33N 37°49' W 122°20'5 5.5
2015-May-16 14:33N 37°53' W 122°24'2 2.2
2015-May-16 13:30N 37°54' W 122°22'0 0.0
2015-May-16 12:29N 37°54' W 122°22'0 0.0
2015-May-16 11:29N 37°54' W 122°22'0 0.0
2015-May-16 10:29N 37°54' W 122°22'0 0.0
2015-May-16 09:29N 37°54' W 122°22'0 0.0
2015-May-16 08:26N 37°54' W 122°22'0 0.0
2015-May-16 07:29N 37°54' W 122°22'0 0.0
2015-May-16 06:32N 37°54' W 122°22'0 0.0
2015-May-16 05:29N 37°54' W 122°22'0 0.0
2015-May-16 04:29N 37°54' W 122°22'0 0.0
2015-May-16 03:29N 37°54' W 122°22'0 0.0
2015-May-16 02:29N 37°54' W 122°22'0 0.0
2015-May-16 01:23N 37°54' W 122°22'0 0.0
2015-May-16 00:29N 37°54' W 122°22'0 0.0
2015-May-15 23:29N 37°54' W 122°22'0 0.1
2015-May-15 22:33N 37°54' W 122°22'1 0.6
2015-May-15 21:33N 37°55' W 122°22'0 0.1
2015-May-15 20:33N 37°54' W 122°22'0 0.0
2015-May-15 19:28N 37°54' W 122°22'0 0.0
2015-May-15 18:31N 37°54' W 122°22'0 0.0
2015-May-15 17:10N 37°54' W 122°22'0 0.0
2015-May-15 16:31N 37°54' W 122°22'0 0.0
2015-May-15 15:10N 37°54' W 122°22'0 0.0
2015-May-15 14:31N 37°54' W 122°22'0 0.0
2015-May-15 12:33N 37°54' W 122°22'0 0.5
2015-May-15 11:33N 37°54' W 122°22'0 0.1
2015-May-15 10:28N 37°54' W 122°22'0 0.0
2015-May-15 09:31N 37°54' W 122°22'0 0.0
2015-May-15 08:28N 37°54' W 122°22'0 0.0
2015-May-15 07:28N 37°54' W 122°22'0 0.0
2015-May-15 06:25N 37°54' W 122°22'0 0.0
2015-May-15 05:28N 37°54' W 122°22'0 0.0
2015-May-15 04:31N 37°54' W 122°22'0 0.0
2015-May-15 03:28N 37°54' W 122°22'0 0.0
2015-May-15 02:31N 37°54' W 122°22'0 0.0
2015-May-15 01:28N 37°54' W 122°22'0 0.0
2015-May-15 00:28N 37°54' W 122°22'0 0.0
2015-May-14 23:31N 37°54' W 122°22'0 0.0
2015-May-14 22:28N 37°54' W 122°22'0 0.0
2015-May-14 21:31N 37°54' W 122°22'0 0.0
2015-May-14 20:31N 37°54' W 122°22'0 0.0
2015-May-14 19:28N 37°54' W 122°22'0 0.0
2015-May-14 18:31N 37°54' W 122°22'0 0.0
2015-May-14 17:31N 37°54' W 122°22'0 0.0
2015-May-14 16:31N 37°54' W 122°22'0 0.0
2015-May-14 15:31N 37°54' W 122°22'0 0.0
2015-May-14 14:31N 37°54' W 122°22'0 0.0
2015-May-14 13:28N 37°54' W 122°22'0 0.0
2015-May-14 12:28N 37°54' W 122°22'0 0.0
2015-May-14 11:28N 37°54' W 122°22'0 0.0
2015-May-14 10:31N 37°54' W 122°22'0 0.0
2015-May-14 09:31N 37°54' W 122°22'0 0.0
2015-May-14 08:22N 37°54' W 122°22'0 0.0
2015-May-14 07:28N 37°54' W 122°22'0 0.0
2015-May-14 06:25N 37°54' W 122°22'0 0.0
2015-May-14 05:28N 37°54' W 122°22'0 0.0
2015-May-14 04:31N 37°54' W 122°22'0 0.0
2015-May-14 03:16N 37°54' W 122°22'0 0.0
2015-May-14 02:31N 37°54' W 122°22'0 0.0
2015-May-14 01:31N 37°54' W 122°22'0 0.0
2015-May-14 00:25N 37°54' W 122°22'0 0.0
2015-May-13 23:28N 37°54' W 122°22'0 0.0
2015-May-13 22:25N 37°54' W 122°22'0 0.0
2015-May-13 21:31N 37°54' W 122°22'0 0.0
2015-May-13 20:28N 37°54' W 122°22'0 0.0
2015-May-13 19:28N 37°54' W 122°22'0 0.0
2015-May-13 18:31N 37°54' W 122°22'0 0.0
2015-May-13 17:16N 37°54' W 122°22'0 0.0
2015-May-13 16:28N 37°54' W 122°22'0 0.0
2015-May-13 15:25N 37°54' W 122°22'0 0.0
2015-May-13 14:28N 37°54' W 122°22'0 0.0
2015-May-13 13:28N 37°54' W 122°22'0 0.0
2015-May-13 12:28N 37°54' W 122°22'0 0.0
2015-May-13 11:22N 37°54' W 122°22'0 0.0
2015-May-13 10:25N 37°54' W 122°22'0 0.0
2015-May-13 09:28N 37°54' W 122°22'0 0.0
2015-May-13 08:28N 37°54' W 122°22'0 0.0
2015-May-13 07:28N 37°54' W 122°22'0 0.0
2015-May-13 06:28N 37°54' W 122°22'0 0.0
2015-May-13 05:28N 37°54' W 122°22'0 0.0
2015-May-13 04:25N 37°54' W 122°22'  

Dump ship's entire track history